createdAt,value
2019-02-21T00:01:35.114Z,4.60
2019-02-21T00:04:02.086Z,4.60
2019-02-21T00:06:29.109Z,4.60
2019-02-21T00:08:56.020Z,4.60
2019-02-21T00:11:23.552Z,4.60
2019-02-21T00:13:50.601Z,4.70
2019-02-21T00:16:17.670Z,4.80
2019-02-21T00:18:44.621Z,4.70
2019-02-21T00:21:11.739Z,4.70
2019-02-21T00:23:38.681Z,4.60
2019-02-21T00:26:05.696Z,4.40
2019-02-21T00:28:33.199Z,4.20
2019-02-21T00:31:00.168Z,4.20
2019-02-21T00:33:27.045Z,4.10
2019-02-21T00:35:53.990Z,4.00
2019-02-21T00:38:20.998Z,4.00
2019-02-21T00:40:47.897Z,4.00
2019-02-21T00:43:14.871Z,3.90
2019-02-21T00:45:41.778Z,4.00
2019-02-21T00:48:08.884Z,3.90
2019-02-21T00:50:35.910Z,4.10
2019-02-21T00:53:03.057Z,4.00
2019-02-21T00:55:30.031Z,3.90
2019-02-21T00:57:57.840Z,4.00
2019-02-21T01:00:24.713Z,4.00
2019-02-21T01:02:51.653Z,4.00
2019-02-21T01:05:18.700Z,4.00
2019-02-21T01:07:45.751Z,4.00
2019-02-21T01:10:12.678Z,4.00
2019-02-21T01:12:39.669Z,4.00
2019-02-21T01:15:07.465Z,4.00
2019-02-21T01:17:34.466Z,4.00
2019-02-21T01:20:01.486Z,3.90
2019-02-21T01:22:28.481Z,3.70
2019-02-21T01:24:55.386Z,3.80
2019-02-21T01:27:22.348Z,3.70
2019-02-21T01:29:49.276Z,3.60
2019-02-21T01:32:16.305Z,3.50
2019-02-21T01:34:43.360Z,3.70
2019-02-21T01:37:10.297Z,3.60
2019-02-21T01:39:37.311Z,3.60
2019-02-21T01:42:04.225Z,3.60
2019-02-21T01:44:31.148Z,3.60
2019-02-21T01:46:58.075Z,3.50
2019-02-21T01:49:25.087Z,3.60
2019-02-21T01:51:52.038Z,3.70
2019-02-21T01:54:19.075Z,3.70
2019-02-21T01:56:46.028Z,3.60
2019-02-21T01:59:12.974Z,3.50
2019-02-21T02:01:40.064Z,3.40
2019-02-21T02:04:07.014Z,3.30
2019-02-21T02:06:33.971Z,3.30
2019-02-21T02:09:00.942Z,3.40
2019-02-21T02:11:27.993Z,3.50
2019-02-21T02:13:54.869Z,3.50
2019-02-21T02:16:21.851Z,3.50
2019-02-21T02:18:48.921Z,3.40
2019-02-21T02:21:15.851Z,3.40
2019-02-21T02:23:42.935Z,3.40
2019-02-21T02:26:09.929Z,3.30
2019-02-21T02:28:36.940Z,3.30
2019-02-21T02:31:03.915Z,3.30
2019-02-21T02:33:31.256Z,3.20
2019-02-21T02:35:58.193Z,3.20
2019-02-21T02:38:25.137Z,3.30
2019-02-21T02:40:52.054Z,3.20
2019-02-21T02:43:19.101Z,3.20
2019-02-21T02:45:46.146Z,3.20
2019-02-21T02:48:13.120Z,3.20
2019-02-21T02:50:40.124Z,3.20
2019-02-21T02:53:07.045Z,3.20
2019-02-21T02:55:33.965Z,3.20
2019-02-21T02:58:01.704Z,3.20
2019-02-21T03:00:28.641Z,3.30
2019-02-21T03:02:55.651Z,3.30
2019-02-21T03:05:22.657Z,3.40
2019-02-21T03:07:49.577Z,3.30
2019-02-21T03:10:17.650Z,3.20
2019-02-21T03:12:44.668Z,3.20
2019-02-21T03:15:11.717Z,3.20
2019-02-21T03:17:38.725Z,3.20
2019-02-21T03:20:06.273Z,3.10
2019-02-21T03:22:33.228Z,3.10
2019-02-21T03:25:00.309Z,2.90
2019-02-21T03:27:27.339Z,3.10
2019-02-21T03:29:54.506Z,3.10
2019-02-21T03:32:21.442Z,3.10
2019-02-21T03:34:48.505Z,3.20
2019-02-21T03:37:15.420Z,3.20
2019-02-21T03:39:42.405Z,3.20
2019-02-21T03:42:09.425Z,3.10
2019-02-21T03:44:36.315Z,3.20
2019-02-21T03:47:03.348Z,3.10
2019-02-21T03:49:30.275Z,2.80
2019-02-21T03:51:58.453Z,2.80
2019-02-21T03:54:25.530Z,2.80
2019-02-21T03:56:52.552Z,2.80
2019-02-21T03:59:19.504Z,2.80
2019-02-21T04:01:46.444Z,2.90
2019-02-21T04:04:13.487Z,2.70
2019-02-21T04:06:40.484Z,2.70
2019-02-21T04:09:07.670Z,2.70
2019-02-21T04:11:35.057Z,2.80
2019-02-21T04:14:02.090Z,2.80
2019-02-21T04:16:29.155Z,2.70
2019-02-21T04:18:56.102Z,2.70
2019-02-21T04:21:23.105Z,2.80
2019-02-21T04:23:50.017Z,2.70
2019-02-21T04:26:17.025Z,2.80
2019-02-21T04:28:45.848Z,2.70
2019-02-21T04:31:12.914Z,2.70
2019-02-21T04:33:39.900Z,2.70
2019-02-21T04:36:06.898Z,2.70
2019-02-21T04:38:33.835Z,2.70
2019-02-21T04:41:00.786Z,2.60
2019-02-21T04:43:27.715Z,2.60
2019-02-21T04:45:54.760Z,2.70
2019-02-21T04:48:21.808Z,2.80
2019-02-21T04:50:48.780Z,2.80
2019-02-21T04:53:15.846Z,2.70
2019-02-21T04:55:42.877Z,2.80
2019-02-21T04:58:09.916Z,2.80
2019-02-21T05:00:37.022Z,2.80
2019-02-21T05:03:03.985Z,2.80
2019-02-21T05:05:31.305Z,2.60
2019-02-21T05:07:58.248Z,2.60
2019-02-21T05:10:25.285Z,2.60
2019-02-21T05:12:52.182Z,2.70
2019-02-21T05:15:19.067Z,2.80
2019-02-21T05:17:46.128Z,2.80
2019-02-21T05:20:13.075Z,2.80
2019-02-21T05:22:40.114Z,2.80
2019-02-21T05:25:07.154Z,3.00
2019-02-21T05:27:34.549Z,3.10
2019-02-21T05:30:01.582Z,3.10
2019-02-21T05:32:42.912Z,3.10
2019-02-21T05:35:17.804Z,3.00
2019-02-21T05:37:46.763Z,3.10
2019-02-21T05:40:30.490Z,3.10
2019-02-21T05:43:16.520Z,3.00
2019-02-21T05:46:00.295Z,2.90
2019-02-21T05:48:29.244Z,3.00
2019-02-21T05:51:14.993Z,3.10
2019-02-21T05:53:43.966Z,3.10
2019-02-21T05:56:12.876Z,3.10
2019-02-21T05:58:48.096Z,3.10
2019-02-21T06:01:33.751Z,3.00
2019-02-21T06:04:02.681Z,2.80
2019-02-21T06:06:31.628Z,2.80
2019-02-21T06:09:09.590Z,2.90
2019-02-21T06:11:55.070Z,2.90
2019-02-21T06:14:24.075Z,3.00
2019-02-21T06:17:05.212Z,3.00
2019-02-21T06:19:34.089Z,2.90
2019-02-21T06:22:10.480Z,2.80
2019-02-21T06:24:36.845Z,2.80
2019-02-21T06:27:05.781Z,2.80
2019-02-21T06:29:34.714Z,2.90
2019-02-21T06:32:01.756Z,2.90
2019-02-21T06:34:31.695Z,3.00
2019-02-21T06:36:58.213Z,2.90
2019-02-21T06:39:25.367Z,3.00
2019-02-21T06:41:59.675Z,3.10
2019-02-21T06:44:21.340Z,3.00
2019-02-21T06:46:48.254Z,3.00
2019-02-21T06:49:15.169Z,3.10
2019-02-21T06:51:42.139Z,3.10
2019-02-21T06:54:09.196Z,3.10
2019-02-21T06:56:36.167Z,3.10
2019-02-21T06:59:03.334Z,3.20
2019-02-21T07:01:30.252Z,3.20
2019-02-21T07:03:57.325Z,3.30
2019-02-21T07:06:31.868Z,3.30
2019-02-21T07:08:54.629Z,3.40
2019-02-21T07:11:22.212Z,3.50
2019-02-21T07:13:49.307Z,3.80
2019-02-21T07:16:16.493Z,3.90
2019-02-21T07:18:43.509Z,4.10
2019-02-21T07:21:12.615Z,4.10
2019-02-21T07:23:43.381Z,4.20
2019-02-21T07:26:08.265Z,4.10
2019-02-21T07:28:35.385Z,4.30
2019-02-21T07:31:02.770Z,4.40
2019-02-21T07:33:29.854Z,4.60
2019-02-21T07:35:56.869Z,4.70
2019-02-21T07:38:23.938Z,4.60
2019-02-21T07:40:51.285Z,4.60
2019-02-21T07:43:20.466Z,4.70
2019-02-21T07:45:47.147Z,4.70
2019-02-21T07:48:14.153Z,4.80
2019-02-21T07:50:41.228Z,4.90
2019-02-21T07:53:08.147Z,4.90
2019-02-21T07:55:35.265Z,4.90
2019-02-21T07:58:03.985Z,4.90
2019-02-21T08:00:31.299Z,4.90
2019-02-21T08:02:58.403Z,4.90
2019-02-21T08:05:25.367Z,5.10
2019-02-21T08:07:52.344Z,5.20
2019-02-21T08:10:21.127Z,5.30
2019-02-21T08:12:48.209Z,5.30
2019-02-21T08:15:15.230Z,5.30
2019-02-21T08:17:42.324Z,5.40
2019-02-21T08:20:09.876Z,5.30
2019-02-21T08:22:36.865Z,5.30
2019-02-21T08:25:04.464Z,5.30
2019-02-21T08:27:31.539Z,5.40
2019-02-21T08:29:58.531Z,5.60
2019-02-21T08:32:27.556Z,5.60
2019-02-21T08:34:54.632Z,5.70
2019-02-21T08:37:21.786Z,5.60
2019-02-21T08:39:48.720Z,5.70
2019-02-21T08:42:15.772Z,5.90
2019-02-21T08:44:42.803Z,6.00
2019-02-21T08:47:09.866Z,6.10
2019-02-21T08:49:36.760Z,6.20
2019-02-21T08:52:03.784Z,6.20
2019-02-21T08:54:30.831Z,6.30
2019-02-21T08:56:57.765Z,6.50
2019-02-21T08:59:24.704Z,6.60
2019-02-21T09:01:51.762Z,6.80
2019-02-21T09:04:27.319Z,6.90
2019-02-21T09:06:47.563Z,6.80
2019-02-21T09:09:14.645Z,6.90
2019-02-21T09:11:42.083Z,6.80
2019-02-21T09:14:09.257Z,6.70
2019-02-21T09:16:36.332Z,6.80
2019-02-21T09:19:03.571Z,6.90
2019-02-21T09:21:30.499Z,6.90
2019-02-21T09:23:57.479Z,6.80
2019-02-21T09:26:24.715Z,6.90
2019-02-21T09:28:51.734Z,7.00
2019-02-21T09:31:18.681Z,7.00
2019-02-21T09:33:45.797Z,7.10
2019-02-21T09:36:12.838Z,7.30
2019-02-21T09:38:40.032Z,7.30
2019-02-21T09:41:10.842Z,7.40
2019-02-21T09:43:37.881Z,7.50
2019-02-21T09:46:04.913Z,7.60
2019-02-21T09:48:32.103Z,7.60
2019-02-21T09:50:59.076Z,7.60
2019-02-21T09:53:26.044Z,7.60
2019-02-21T09:55:53.037Z,7.70
2019-02-21T09:58:20.083Z,7.70
2019-02-21T10:00:47.021Z,7.60
2019-02-21T10:03:14.005Z,7.60
2019-02-21T10:05:41.198Z,7.50
2019-02-21T10:08:08.202Z,7.30
2019-02-21T10:10:35.335Z,7.30
2019-02-21T10:13:02.416Z,7.40
2019-02-21T10:15:31.377Z,7.60
2019-02-21T10:17:58.261Z,7.80
2019-02-21T10:20:25.297Z,8.10
2019-02-21T10:22:52.543Z,8.20
2019-02-21T10:25:23.151Z,8.30
2019-02-21T10:27:50.478Z,8.30
2019-02-21T10:30:18.583Z,8.40
2019-02-21T10:32:45.586Z,8.50
2019-02-21T10:35:12.733Z,8.60
2019-02-21T10:37:39.922Z,8.70
2019-02-21T10:40:08.171Z,8.80
2019-02-21T10:42:35.268Z,8.80
2019-02-21T10:45:03.532Z,8.90
2019-02-21T10:47:30.715Z,8.90
2019-02-21T10:49:57.783Z,8.80
2019-02-21T10:52:25.968Z,8.80
2019-02-21T10:54:53.051Z,8.90
2019-02-21T10:57:20.066Z,9.00
2019-02-21T10:59:47.221Z,9.20
2019-02-21T11:02:14.256Z,9.20
2019-02-21T11:04:42.222Z,9.40
2019-02-21T11:07:09.329Z,9.50
2019-02-21T11:09:36.239Z,9.60
2019-02-21T11:12:04.459Z,9.80
2019-02-21T11:14:31.500Z,9.80
2019-02-21T11:16:58.498Z,9.70
2019-02-21T11:19:25.480Z,9.70
2019-02-21T11:21:52.549Z,9.70
2019-02-21T11:24:19.575Z,9.70
2019-02-21T11:26:46.625Z,9.70
2019-02-21T11:29:13.894Z,9.70
2019-02-21T11:31:41.005Z,9.80
2019-02-21T11:34:08.012Z,9.90
2019-02-21T11:36:35.057Z,10.10
2019-02-21T11:39:03.951Z,10.10
2019-02-21T11:41:30.897Z,10.10
2019-02-21T11:43:58.278Z,10.10
2019-02-21T11:46:25.181Z,10.20
2019-02-21T11:48:52.357Z,10.10
2019-02-21T11:51:19.358Z,10.10
2019-02-21T11:53:46.433Z,10.10
2019-02-21T11:56:15.670Z,10.00
2019-02-21T11:58:42.256Z,10.00
2019-02-21T12:01:09.892Z,9.90
2019-02-21T12:03:37.416Z,9.80
2019-02-21T12:06:04.368Z,9.90
2019-02-21T12:08:31.401Z,10.10
2019-02-21T12:10:58.746Z,10.40
2019-02-21T12:13:26.107Z,10.60
2019-02-21T12:15:53.130Z,10.70
2019-02-21T12:18:20.962Z,10.70
2019-02-21T12:20:48.005Z,10.70
2019-02-21T12:23:17.661Z,10.70
2019-02-21T12:25:44.005Z,10.70
2019-02-21T12:28:11.223Z,10.70
2019-02-21T12:30:38.307Z,10.60
2019-02-21T12:33:05.289Z,10.60
2019-02-21T12:35:32.472Z,10.60
2019-02-21T12:37:59.538Z,10.70
2019-02-21T12:40:26.585Z,10.70
2019-02-21T12:42:53.661Z,10.80
2019-02-21T12:45:20.678Z,10.90
2019-02-21T12:47:52.782Z,11.00
2019-02-21T12:50:16.451Z,11.00
2019-02-21T12:52:43.524Z,10.90
2019-02-21T12:55:10.566Z,10.80
2019-02-21T12:57:37.663Z,10.70
2019-02-21T13:00:08.089Z,10.60
2019-02-21T13:02:35.093Z,10.50
2019-02-21T13:05:02.220Z,10.50
2019-02-21T13:07:29.170Z,10.50
2019-02-21T13:09:56.079Z,10.50
2019-02-21T13:12:23.202Z,10.70
2019-02-21T13:14:50.096Z,10.80
2019-02-21T13:17:17.220Z,11.00
2019-02-21T13:19:44.300Z,11.10
2019-02-21T13:22:11.379Z,11.10
2019-02-21T13:24:38.487Z,11.20
2019-02-21T13:27:05.526Z,11.20
2019-02-21T13:29:32.478Z,11.10
2019-02-21T13:31:59.448Z,11.00
2019-02-21T13:34:26.384Z,11.00
2019-02-21T13:36:53.422Z,11.10
2019-02-21T13:39:20.381Z,11.10
2019-02-21T13:41:47.303Z,11.30
2019-02-21T13:44:14.304Z,11.40
2019-02-21T13:46:41.890Z,11.50
2019-02-21T13:49:09.097Z,11.50
2019-02-21T13:51:36.201Z,11.60
2019-02-21T13:54:03.146Z,11.60
2019-02-21T13:56:35.806Z,11.50
2019-02-21T13:59:02.897Z,11.60
2019-02-21T14:01:29.853Z,11.70
2019-02-21T14:03:56.905Z,11.80
2019-02-21T14:06:23.919Z,11.70
2019-02-21T14:08:50.973Z,11.60
2019-02-21T14:11:17.984Z,11.50
2019-02-21T14:13:44.980Z,11.40
2019-02-21T14:16:11.946Z,11.30
2019-02-21T14:18:38.943Z,11.10
2019-02-21T14:21:05.870Z,11.20
2019-02-21T14:23:32.962Z,11.20
2019-02-21T14:26:00.144Z,11.40
2019-02-21T14:28:27.133Z,11.40
2019-02-21T14:30:54.076Z,11.30
2019-02-21T14:33:21.104Z,11.20
2019-02-21T14:35:48.158Z,11.30
2019-02-21T14:38:24.902Z,11.40
2019-02-21T14:40:44.222Z,11.50
2019-02-21T14:43:14.680Z,11.50
2019-02-21T14:45:40.144Z,11.60
2019-02-21T14:48:07.184Z,11.60
2019-02-21T14:50:36.088Z,11.70
2019-02-21T14:53:03.065Z,11.70
2019-02-21T14:55:30.301Z,11.60
2019-02-21T14:57:57.433Z,11.50
2019-02-21T15:00:24.425Z,11.40
2019-02-21T15:02:51.520Z,11.50
2019-02-21T15:05:18.981Z,11.50
2019-02-21T15:07:45.987Z,11.60
2019-02-21T15:10:13.693Z,11.70
2019-02-21T15:12:40.742Z,11.80
2019-02-21T15:15:09.076Z,11.80
2019-02-21T15:17:36.140Z,11.90
2019-02-21T15:20:03.688Z,11.90
2019-02-21T15:22:30.739Z,11.90
2019-02-21T15:24:57.884Z,11.90
2019-02-21T15:27:24.915Z,11.90
2019-02-21T15:29:51.987Z,11.80
2019-02-21T15:32:18.990Z,11.80
2019-02-21T15:34:47.297Z,11.80
2019-02-21T15:37:14.451Z,11.70
2019-02-21T15:39:42.918Z,11.70
2019-02-21T15:42:10.216Z,11.70
2019-02-21T15:44:37.232Z,11.70
2019-02-21T15:47:04.310Z,11.60
2019-02-21T15:49:31.326Z,11.70
2019-02-21T15:51:58.367Z,11.60
2019-02-21T15:54:25.421Z,11.70
2019-02-21T15:56:52.486Z,11.60
2019-02-21T15:59:19.452Z,11.60
2019-02-21T16:01:47.839Z,11.60
2019-02-21T16:04:15.019Z,11.60
2019-02-21T16:06:50.931Z,11.60
2019-02-21T16:09:16.337Z,11.60
2019-02-21T16:11:40.149Z,11.60
2019-02-21T16:14:07.142Z,11.50
2019-02-21T16:16:34.097Z,11.50
2019-02-21T16:19:01.026Z,11.40
2019-02-21T16:21:28.045Z,11.40
2019-02-21T16:23:55.136Z,11.40
2019-02-21T16:26:22.147Z,11.40
2019-02-21T16:28:49.194Z,11.40
2019-02-21T16:31:16.225Z,11.40
2019-02-21T16:33:43.309Z,11.30
2019-02-21T16:36:10.364Z,11.30
2019-02-21T16:38:37.502Z,11.30
2019-02-21T16:41:04.558Z,11.30
2019-02-21T16:43:31.565Z,11.30
2019-02-21T16:46:07.416Z,11.30
2019-02-21T16:48:27.306Z,11.30
2019-02-21T16:50:54.268Z,11.30
2019-02-21T16:53:21.268Z,11.30
2019-02-21T16:55:48.267Z,11.30
2019-02-21T16:58:15.277Z,11.30
2019-02-21T17:00:52.510Z,11.30
2019-02-21T17:03:10.991Z,11.30
2019-02-21T17:05:37.941Z,11.30
2019-02-21T17:08:04.918Z,11.30
2019-02-21T17:10:31.879Z,11.30
2019-02-21T17:13:04.777Z,11.30
2019-02-21T17:15:31.794Z,11.30
2019-02-21T17:18:03.918Z,11.20
2019-02-21T17:20:27.647Z,11.20
2019-02-21T17:22:54.745Z,11.10
2019-02-21T17:25:21.710Z,11.10
2019-02-21T17:27:48.929Z,11.10
2019-02-21T17:30:16.237Z,11.10
2019-02-21T17:32:43.215Z,11.10
2019-02-21T17:35:10.174Z,11.10
2019-02-21T17:37:37.243Z,11.20
2019-02-21T17:40:05.818Z,11.20
2019-02-21T17:42:32.734Z,11.20
2019-02-21T17:44:59.811Z,11.20
2019-02-21T17:47:26.842Z,11.20
2019-02-21T17:49:53.896Z,11.20
2019-02-21T17:52:20.882Z,11.20
2019-02-21T17:54:47.933Z,11.20
2019-02-21T17:57:14.909Z,11.10
2019-02-21T17:59:41.923Z,11.10
2019-02-21T18:02:08.900Z,11.00
2019-02-21T18:04:36.028Z,11.00
2019-02-21T18:07:03.556Z,11.00
2019-02-21T18:09:30.631Z,11.00
2019-02-21T18:11:58.068Z,10.90
2019-02-21T18:14:25.402Z,10.90
2019-02-21T18:16:52.481Z,10.80
2019-02-21T18:19:19.539Z,10.80
2019-02-21T18:21:46.653Z,10.80
2019-02-21T18:24:14.141Z,10.80
2019-02-21T18:26:41.089Z,10.80
2019-02-21T18:29:08.197Z,10.80
2019-02-21T18:31:35.320Z,10.80
2019-02-21T18:34:02.384Z,10.80
2019-02-21T18:36:29.456Z,10.80
2019-02-21T18:38:56.545Z,10.80
2019-02-21T18:41:23.697Z,10.70
2019-02-21T18:43:50.863Z,10.70
2019-02-21T18:46:17.952Z,10.70
2019-02-21T18:48:44.961Z,10.70
2019-02-21T18:51:12.368Z,10.60
2019-02-21T18:53:39.829Z,10.60
2019-02-21T18:56:07.365Z,10.60
2019-02-21T18:58:34.567Z,10.50
2019-02-21T19:01:03.006Z,10.50
2019-02-21T19:03:30.258Z,10.40
2019-02-21T19:05:57.500Z,10.40
2019-02-21T19:08:25.681Z,10.40
2019-02-21T19:10:52.699Z,10.30
2019-02-21T19:13:19.774Z,10.30
2019-02-21T19:15:47.154Z,10.10
2019-02-21T19:18:14.266Z,10.00
2019-02-21T19:20:41.455Z,9.90
2019-02-21T19:23:08.646Z,9.80
2019-02-21T19:25:35.701Z,9.70
2019-02-21T19:28:02.692Z,9.50
2019-02-21T19:30:33.621Z,9.40
2019-02-21T19:33:00.828Z,9.50
2019-02-21T19:35:28.006Z,9.40
2019-02-21T19:37:55.388Z,9.40
2019-02-21T19:40:23.338Z,9.40
2019-02-21T19:42:53.936Z,9.50
2019-02-21T19:45:21.574Z,9.50
2019-02-21T19:47:48.545Z,9.50
2019-02-21T19:50:15.709Z,9.40
2019-02-21T19:52:43.295Z,9.40
2019-02-21T19:55:11.457Z,9.30
2019-02-21T19:57:38.567Z,9.30
2019-02-21T20:00:08.332Z,9.40
2019-02-21T20:02:35.631Z,9.40
2019-02-21T20:05:03.075Z,9.50
2019-02-21T20:07:30.272Z,9.40
2019-02-21T20:09:57.410Z,9.30
2019-02-21T20:12:24.662Z,9.20
2019-02-21T20:14:51.684Z,9.10
2019-02-21T20:17:18.586Z,9.20
2019-02-21T20:19:46.026Z,9.10
2019-02-21T20:22:13.118Z,9.10
2019-02-21T20:24:41.015Z,9.10
2019-02-21T20:27:08.280Z,9.10
2019-02-21T20:29:35.827Z,9.10
2019-02-21T20:32:03.259Z,9.20
2019-02-21T20:34:32.196Z,9.20
2019-02-21T20:37:00.509Z,9.10
2019-02-21T20:39:28.143Z,9.10
2019-02-21T20:41:55.716Z,9.10
2019-02-21T20:44:22.921Z,9.20
2019-02-21T20:46:49.832Z,9.20
2019-02-21T20:49:17.459Z,9.30
2019-02-21T20:51:44.718Z,9.20
2019-02-21T20:54:13.017Z,9.20
2019-02-21T20:56:40.428Z,9.30
2019-02-21T20:59:07.637Z,9.30
2019-02-21T21:01:35.133Z,9.30
2019-02-21T21:04:03.343Z,9.30
2019-02-21T21:06:31.964Z,9.30
2019-02-21T21:08:59.465Z,9.30
2019-02-21T21:11:27.111Z,9.40
2019-02-21T21:14:02.180Z,9.40
2019-02-21T21:16:30.677Z,9.40
2019-02-21T21:19:01.009Z,9.30
2019-02-21T21:21:32.802Z,9.40
2019-02-21T21:23:59.870Z,9.30
2019-02-21T21:26:27.647Z,9.20
2019-02-21T21:28:57.812Z,9.20
2019-02-21T21:31:25.297Z,9.30
2019-02-21T21:33:52.475Z,9.30
2019-02-21T21:36:22.427Z,9.30
2019-02-21T21:38:54.193Z,9.30
2019-02-21T21:41:18.702Z,9.30
2019-02-21T21:43:46.095Z,9.30
2019-02-21T21:46:13.323Z,9.30
2019-02-21T21:48:40.614Z,9.20
2019-02-21T21:51:07.859Z,9.10
2019-02-21T21:53:37.129Z,9.20
2019-02-21T21:56:04.156Z,9.20
2019-02-21T21:58:31.251Z,9.20
2019-02-21T22:00:58.503Z,9.20
2019-02-21T22:03:26.639Z,9.10
2019-02-21T22:05:54.416Z,9.10
2019-02-21T22:08:21.673Z,9.10
2019-02-21T22:10:48.780Z,9.10
2019-02-21T22:13:16.969Z,9.10
2019-02-21T22:15:44.110Z,9.00
2019-02-21T22:18:11.086Z,8.90
2019-02-21T22:20:38.229Z,8.90
2019-02-21T22:23:05.257Z,8.80
2019-02-21T22:25:32.369Z,8.80
2019-02-21T22:27:59.438Z,8.80
2019-02-21T22:30:26.515Z,8.80
2019-02-21T22:32:53.603Z,8.70
2019-02-21T22:35:23.417Z,8.70
2019-02-21T22:37:50.545Z,8.60
2019-02-21T22:40:17.747Z,8.60
2019-02-21T22:42:44.970Z,8.60
2019-02-21T22:45:12.789Z,8.60
2019-02-21T22:47:39.749Z,8.40
2019-02-21T22:50:09.119Z,8.40
2019-02-21T22:52:36.255Z,8.40
2019-02-21T22:55:09.793Z,8.50
2019-02-21T22:57:32.729Z,8.60
2019-02-21T23:00:01.213Z,8.60
2019-02-21T23:02:30.676Z,8.60
2019-02-21T23:05:26.536Z,8.50
2019-02-21T23:08:34.041Z,8.50
2019-02-21T23:11:01.085Z,8.60
2019-02-21T23:13:28.118Z,8.70
2019-02-21T23:15:55.125Z,8.70
2019-02-21T23:18:22.267Z,8.70
2019-02-21T23:20:49.485Z,8.70
2019-02-21T23:23:16.543Z,8.80
2019-02-21T23:25:43.680Z,8.90
2019-02-21T23:28:10.596Z,8.80
2019-02-21T23:30:37.558Z,8.70
2019-02-21T23:33:04.545Z,8.80
2019-02-21T23:35:31.543Z,8.70
2019-02-21T23:37:58.636Z,8.70
2019-02-21T23:40:25.642Z,8.60
2019-02-21T23:42:52.551Z,8.70
2019-02-21T23:45:20.039Z,8.80
2019-02-21T23:47:49.979Z,8.80
2019-02-21T23:50:15.960Z,8.90
2019-02-21T23:52:44.069Z,8.90
2019-02-21T23:55:11.108Z,9.00
2019-02-21T23:57:38.122Z,9.20
